Time;durP1;ratioP1;P1;durP2;ratioP2;P2;SDS_P1;SDS_P2;PMS_P1;PMS_P2;Temp;Humidity;BMP_temperature;BMP_pressure;BME280_temperature;BME280_humidity;BME280_pressure;Samples;Min_cycle;Max_cycle;Signal;HPM_P1;HPM_P2
2021/12/20 00:01:44;;;;;;;58.38;25.27;;;3.80;99.90;;;;;;4955111;28;20034;-71
2021/12/20 00:04:10;;;;;;;53.42;25.08;;;3.90;99.90;;;;;;4955495;29;20027;-72
2021/12/20 00:06:36;;;;;;;56.47;24.67;;;3.80;99.90;;;;;;4955554;29;20046;-71
2021/12/20 00:09:04;;;;;;;59.85;25.38;;;3.80;99.90;;;;;;4955345;29;20039;-71
2021/12/20 00:11:30;;;;;;;60.42;26.33;;;3.80;99.90;;;;;;4955366;28;20443;-71
2021/12/20 00:13:55;;;;;;;64.22;25.55;;;3.80;99.90;;;;;;4955288;29;20069;-71
2021/12/20 00:16:21;;;;;;;65.93;29.05;;;3.70;99.90;;;;;;4955271;29;20375;-71
2021/12/20 00:18:47;;;;;;;64.88;29.42;;;3.70;99.90;;;;;;4955323;29;20038;-71
2021/12/20 00:21:13;;;;;;;69.95;29.65;;;3.60;99.90;;;;;;4954911;28;20031;-72
2021/12/20 00:23:39;;;;;;;63.10;27.75;;;3.60;99.90;;;;;;4955364;29;20016;-70
2021/12/20 00:26:05;;;;;;;54.50;24.50;;;3.50;99.90;;;;;;4955330;29;20418;-71
2021/12/20 00:28:31;;;;;;;49.28;23.83;;;3.50;99.90;;;;;;4957306;28;20019;-71
2021/12/20 00:30:57;;;;;;;53.40;22.52;;;3.50;99.90;;;;;;4959021;29;20106;-71
2021/12/20 00:33:23;;;;;;;52.42;22.77;;;3.50;99.90;;;;;;4959097;29;20023;-71
2021/12/20 00:35:49;;;;;;;48.30;22.27;;;3.40;99.90;;;;;;4959139;29;20023;-71
2021/12/20 00:41:00;;;;;;;50.03;22.15;;;3.40;99.90;;;;;;4958577;29;20102;-71
2021/12/20 00:43:26;;;;;;;41.03;19.30;;;3.40;99.90;;;;;;4958696;28;20023;-71
2021/12/20 00:45:52;;;;;;;42.00;19.55;;;3.30;99.90;;;;;;4958504;29;20027;-70
2021/12/20 00:48:18;;;;;;;38.17;18.33;;;3.40;99.90;;;;;;4958891;28;20023;-71
2021/12/20 00:50:45;;;;;;;45.42;20.48;;;3.30;99.90;;;;;;4957405;29;20133;-71
2021/12/20 00:53:12;;;;;;;46.30;19.25;;;3.30;99.90;;;;;;4958641;28;20033;-71
2021/12/20 00:55:39;;;;;;;38.67;18.63;;;3.30;99.90;;;;;;4958979;28;20026;-71
2021/12/20 00:58:05;;;;;;;42.90;18.52;;;3.30;99.90;;;;;;4958430;29;20047;-71
2021/12/20 01:00:35;;;;;;;47.00;21.02;;;3.30;99.90;;;;;;4958171;29;20034;-71
2021/12/20 01:03:03;;;;;;;50.67;21.55;;;3.30;99.90;;;;;;4958387;29;20055;-71
2021/12/20 01:05:29;;;;;;;46.10;19.73;;;3.20;99.90;;;;;;4958260;29;20078;-70
2021/12/20 01:07:59;;;;;;;55.47;23.15;;;3.20;99.90;;;;;;4958334;29;20094;-71
2021/12/20 01:10:28;;;;;;;47.78;20.55;;;3.20;99.90;;;;;;4958458;28;20024;-71
2021/12/20 01:12:55;;;;;;;36.67;17.60;;;3.20;99.90;;;;;;4958561;29;20019;-71
2021/12/20 01:15:28;;;;;;;41.30;19.08;;;3.20;99.90;;;;;;4958499;29;20016;-70
2021/12/20 01:17:54;;;;;;;46.70;19.88;;;3.20;99.90;;;;;;4958009;29;20466;-70
2021/12/20 01:20:20;;;;;;;45.15;20.33;;;3.20;99.90;;;;;;4958266;28;20033;-71
2021/12/20 01:22:48;;;;;;;45.35;19.83;;;3.20;99.90;;;;;;4958148;29;20033;-70
2021/12/20 01:25:15;;;;;;;36.88;17.65;;;3.20;99.90;;;;;;4958193;28;20023;-70
2021/12/20 01:27:41;;;;;;;33.40;16.90;;;3.10;99.90;;;;;;4958224;29;20114;-71
2021/12/20 01:30:09;;;;;;;35.47;16.50;;;3.10;99.90;;;;;;4958311;28;20058;-70
2021/12/20 01:32:35;;;;;;;53.15;20.50;;;3.10;99.90;;;;;;4957984;28;20019;-70
2021/12/20 01:35:02;;;;;;;35.58;17.20;;;3.10;99.90;;;;;;4957932;29;20369;-71
2021/12/20 01:37:28;;;;;;;34.42;15.40;;;3.10;99.90;;;;;;4957859;29;20022;-71
2021/12/20 01:39:58;;;;;;;26.75;14.30;;;3.10;99.90;;;;;;4956855;28;20027;-71
2021/12/20 01:42:24;;;;;;;32.00;16.23;;;3.10;99.90;;;;;;4958212;29;20043;-70
2021/12/20 01:44:50;;;;;;;43.30;19.83;;;3.10;99.90;;;;;;4957665;29;20454;-71
2021/12/20 01:47:17;;;;;;;42.15;20.15;;;3.10;99.90;;;;;;4957509;29;20023;-70
2021/12/20 01:52:43;;;;;;;49.45;20.27;;;3.20;99.90;;;;;;4936072;29;20060;-70
2021/12/20 01:55:14;;;;;;;39.08;16.75;;;3.30;99.90;;;;;;4936331;29;20024;-70
2021/12/20 01:57:39;;;;;;;33.20;15.25;;;3.40;99.90;;;;;;4936358;29;20036;-70
2021/12/20 02:00:17;;;;;;;27.48;13.35;;;3.40;99.90;;;;;;4936076;29;20036;-70
2021/12/20 02:02:43;;;;;;;20.95;11.13;;;3.40;99.90;;;;;;4936184;29;20046;-70
2021/12/20 02:05:22;;;;;;;24.45;12.88;;;3.50;99.90;;;;;;4936211;29;20411;-71
2021/12/20 02:08:13;;;;;;;24.23;12.00;;;3.50;99.90;;;;;;4935801;29;20020;-71
2021/12/20 02:10:39;;;;;;;24.33;13.05;;;3.50;99.90;;;;;;4936037;29;20219;-71
2021/12/20 02:13:06;;;;;;;30.02;12.88;;;3.50;99.90;;;;;;4935936;29;20519;-70
2021/12/20 02:15:31;;;;;;;26.75;12.38;;;3.50;99.90;;;;;;4936028;29;20043;-70
2021/12/20 02:17:57;;;;;;;22.73;12.52;;;3.50;99.90;;;;;;4935920;29;20078;-70
2021/12/20 02:20:28;;;;;;;23.27;11.45;;;3.50;99.90;;;;;;4935634;29;20040;-71
2021/12/20 02:22:56;;;;;;;23.07;9.87;;;3.50;99.90;;;;;;4935957;29;20479;-71
2021/12/20 02:25:23;;;;;;;20.17;10.73;;;3.50;99.90;;;;;;4935843;29;20713;-70
2021/12/20 02:27:49;;;;;;;20.88;10.10;;;3.50;99.90;;;;;;4935676;29;20534;-70
2021/12/20 02:30:40;;;;;;;23.48;11.75;;;3.60;99.90;;;;;;4957138;29;20027;-70
2021/12/20 02:38:34;;;;;;;24.08;11.30;;;3.50;99.90;;;;;;4956916;29;20058;-70
2021/12/20 02:41:16;;;;;;;22.90;11.27;;;3.50;99.90;;;;;;4956724;28;20046;-70
2021/12/20 02:43:51;;;;;;;19.25;9.68;;;3.50;99.90;;;;;;4956600;29;20529;-71
2021/12/20 02:46:26;;;;;;;22.63;10.65;;;3.50;99.90;;;;;;4956504;29;20442;-70
2021/12/20 02:48:52;;;;;;;19.70;10.70;;;3.40;99.90;;;;;;4956827;29;20035;-70
2021/12/20 02:51:18;;;;;;;19.95;10.85;;;3.50;99.90;;;;;;4956732;28;20028;-71
2021/12/20 02:53:44;;;;;;;19.17;10.77;;;3.40;99.90;;;;;;4956781;28;20027;-70
2021/12/20 02:56:10;;;;;;;22.58;11.02;;;3.50;99.90;;;;;;4956597;28;20423;-70
2021/12/20 02:58:36;;;;;;;20.77;9.93;;;3.40;99.90;;;;;;4956530;29;20023;-70
2021/12/20 03:01:01;;;;;;;19.02;8.60;;;3.50;99.90;;;;;;4956644;29;20031;-71
2021/12/20 03:03:27;;;;;;;13.30;7.35;;;3.60;99.90;;;;;;4956338;28;20080;-70
2021/12/20 03:05:53;;;;;;;16.25;8.23;;;3.60;99.90;;;;;;4956162;28;20019;-71
2021/12/20 03:08:22;;;;;;;16.52;8.75;;;3.60;99.90;;;;;;4956755;29;20030;-70
2021/12/20 03:10:49;;;;;;;17.63;8.70;;;3.60;99.90;;;;;;4956289;29;20021;-71
2021/12/20 03:13:15;;;;;;;16.10;8.05;;;3.50;99.90;;;;;;4956406;28;20027;-70
2021/12/20 03:15:41;;;;;;;15.18;7.90;;;3.50;99.90;;;;;;4956415;28;20513;-71
2021/12/20 03:18:07;;;;;;;20.98;9.45;;;3.50;99.90;;;;;;4956172;29;20027;-70
2021/12/20 03:20:33;;;;;;;21.30;9.18;;;3.40;99.90;;;;;;4956129;29;20085;-70
2021/12/20 03:22:59;;;;;;;18.80;9.50;;;3.50;99.90;;;;;;4955814;29;20491;-70
2021/12/20 03:25:25;;;;;;;17.75;8.25;;;3.50;99.90;;;;;;4956158;28;20023;-70
2021/12/20 03:27:52;;;;;;;19.88;8.73;;;3.50;99.90;;;;;;4955827;29;20028;-71
2021/12/20 03:30:17;;;;;;;18.05;8.55;;;3.40;99.90;;;;;;4956263;28;20028;-71
2021/12/20 03:32:43;;;;;;;19.60;9.60;;;3.50;99.90;;;;;;4956215;28;20045;-71
2021/12/20 03:35:10;;;;;;;14.95;8.68;;;3.40;99.90;;;;;;4955957;29;20023;-70
2021/12/20 03:37:35;;;;;;;20.70;9.10;;;3.50;99.90;;;;;;4955830;29;20023;-70
2021/12/20 03:40:03;;;;;;;16.80;8.65;;;3.40;99.90;;;;;;4955585;29;20038;-71
2021/12/20 03:42:29;;;;;;;18.13;9.23;;;3.40;99.90;;;;;;4956053;29;20043;-70
2021/12/20 03:44:55;;;;;;;22.70;9.25;;;3.40;99.90;;;;;;4955809;29;20098;-70
2021/12/20 03:47:21;;;;;;;14.50;7.70;;;3.40;99.90;;;;;;4956111;29;20394;-71
2021/12/20 03:49:47;;;;;;;13.70;7.35;;;3.40;99.90;;;;;;4955935;29;20081;-70
2021/12/20 03:52:12;;;;;;;13.43;8.10;;;3.40;99.90;;;;;;4955684;29;20066;-71
2021/12/20 03:54:39;;;;;;;14.40;8.07;;;3.40;99.90;;;;;;4955926;29;20461;-71
2021/12/20 03:57:05;;;;;;;17.23;7.03;;;3.40;99.90;;;;;;4955815;29;20518;-71
2021/12/20 03:59:32;;;;;;;20.75;8.82;;;3.40;99.90;;;;;;4955480;28;20036;-71
2021/12/20 04:01:59;;;;;;;13.95;7.03;;;3.30;99.90;;;;;;4955355;28;20462;-71
2021/12/20 04:04:24;;;;;;;16.30;7.30;;;3.40;99.90;;;;;;4955539;29;20042;-71
2021/12/20 04:06:50;;;;;;;13.73;6.85;;;3.40;99.90;;;;;;4955563;29;20435;-71
2021/12/20 04:09:16;;;;;;;16.42;8.68;;;3.50;99.90;;;;;;4955688;29;20443;-71
2021/12/20 04:11:42;;;;;;;16.10;8.23;;;3.50;99.90;;;;;;4955419;29;20045;-71
2021/12/20 04:14:08;;;;;;;15.38;7.20;;;3.50;99.90;;;;;;4955481;28;20538;-71
2021/12/20 04:16:36;;;;;;;13.40;7.35;;;3.50;99.90;;;;;;4955197;29;20027;-71
2021/12/20 04:19:03;;;;;;;16.42;7.85;;;3.60;99.90;;;;;;4955395;29;20031;-71
2021/12/20 04:21:30;;;;;;;14.35;6.40;;;3.60;99.90;;;;;;4955300;28;20359;-70
2021/12/20 04:23:56;;;;;;;15.15;6.60;;;3.60;99.90;;;;;;4955210;29;20363;-71
2021/12/20 04:26:22;;;;;;;11.35;6.15;;;3.60;99.90;;;;;;4955109;29;20221;-71
2021/12/20 04:28:49;;;;;;;20.00;8.00;;;3.60;99.90;;;;;;4955335;29;20033;-71
2021/12/20 04:31:15;;;;;;;19.08;6.80;;;3.60;99.90;;;;;;4955173;29;20031;-71
2021/12/20 04:33:41;;;;;;;14.45;6.63;;;3.60;99.90;;;;;;4955022;29;20027;-71
2021/12/20 04:36:07;;;;;;;11.80;6.93;;;3.50;99.90;;;;;;4955512;29;20020;-71
2021/12/20 04:38:33;;;;;;;14.95;7.70;;;3.50;99.90;;;;;;4955130;29;20034;-70
2021/12/20 04:40:59;;;;;;;15.60;8.02;;;3.50;99.90;;;;;;4954938;29;20047;-71
2021/12/20 04:43:25;;;;;;;13.80;7.22;;;3.40;99.90;;;;;;4954982;29;20035;-70
2021/12/20 04:45:51;;;;;;;13.90;7.05;;;3.40;99.90;;;;;;4955422;28;20023;-70
2021/12/20 04:48:17;;;;;;;10.18;5.68;;;3.40;99.90;;;;;;4954944;28;20078;-70
2021/12/20 04:50:43;;;;;;;10.90;6.45;;;3.50;99.90;;;;;;4954981;28;20027;-70
2021/12/20 04:53:08;;;;;;;16.83;8.63;;;3.50;99.90;;;;;;4955105;29;20023;-70
2021/12/20 04:55:34;;;;;;;24.77;11.43;;;3.40;99.90;;;;;;4955126;29;20120;-71
2021/12/20 04:58:05;;;;;;;41.67;19.45;;;3.50;99.90;;;;;;4954981;28;20399;-71
2021/12/20 05:00:33;;;;;;;37.85;17.08;;;3.50;99.90;;;;;;4955251;29;20031;-71
2021/12/20 05:03:00;;;;;;;20.48;10.50;;;3.50;99.90;;;;;;4954780;29;20077;-71
2021/12/20 05:05:28;;;;;;;18.65;9.70;;;3.50;99.90;;;;;;4954874;29;20102;-71
2021/12/20 05:07:54;;;;;;;22.05;9.85;;;3.50;99.90;;;;;;4955212;28;20027;-71
2021/12/20 05:10:31;;;;;;;23.35;12.10;;;3.60;99.90;;;;;;4954825;29;20054;-70
2021/12/20 05:13:01;;;;;;;25.63;12.70;;;3.70;99.90;;;;;;4954774;29;20024;-71
2021/12/20 05:15:27;;;;;;;34.47;16.20;;;3.80;99.90;;;;;;4956664;28;20019;-71
2021/12/20 05:17:53;;;;;;;32.20;16.10;;;3.80;99.90;;;;;;4958598;29;20162;-71
2021/12/20 05:20:19;;;;;;;36.45;18.35;;;3.90;99.90;;;;;;4958063;29;20422;-71
2021/12/20 05:22:45;;;;;;;41.40;19.85;;;3.90;99.90;;;;;;4957993;29;20415;-70
2021/12/20 05:25:12;;;;;;;37.03;17.63;;;4.00;99.90;;;;;;4958427;29;20019;-71
2021/12/20 05:27:38;;;;;;;28.27;14.52;;;4.10;99.90;;;;;;4958158;29;20027;-71
2021/12/20 05:30:06;;;;;;;35.78;18.00;;;4.10;99.90;;;;;;4958131;28;20034;-70
2021/12/20 05:32:31;;;;;;;36.30;17.00;;;4.20;99.90;;;;;;4958076;29;20026;-70
2021/12/20 05:34:57;;;;;;;45.38;20.52;;;4.20;99.90;;;;;;4958239;29;20070;-71
2021/12/20 05:37:23;;;;;;;38.28;19.60;;;4.20;99.90;;;;;;4957727;29;20027;-71
2021/12/20 05:39:49;;;;;;;31.58;14.07;;;4.20;99.90;;;;;;4957781;29;20463;-71
2021/12/20 05:42:15;;;;;;;41.42;18.83;;;4.20;99.90;;;;;;4958257;28;20086;-72
2021/12/20 05:44:41;;;;;;;32.72;14.95;;;4.30;99.90;;;;;;4957872;29;20106;-71
2021/12/20 05:47:07;;;;;;;20.70;9.93;;;4.30;99.90;;;;;;4957682;28;20023;-70
2021/12/20 05:49:33;;;;;;;23.92;11.02;;;4.30;99.90;;;;;;4957682;28;20059;-70
2021/12/20 05:52:03;;;;;;;20.25;9.15;;;4.30;99.90;;;;;;4957467;28;20019;-70
2021/12/20 05:54:30;;;;;;;11.35;6.70;;;4.30;99.90;;;;;;4957788;29;20102;-70
2021/12/20 05:56:56;;;;;;;14.00;5.80;;;4.40;99.90;;;;;;4957427;29;20106;-71
2021/12/20 05:59:22;;;;;;;17.88;9.10;;;4.50;99.90;;;;;;4957135;28;20038;-70
2021/12/20 06:01:48;;;;;;;127.68;43.35;;;4.50;99.90;;;;;;4956765;29;20023;-70
2021/12/20 06:04:14;;;;;;;119.95;42.20;;;4.50;99.90;;;;;;4956972;29;20011;-70
2021/12/20 06:06:40;;;;;;;199.80;74.68;;;4.50;99.90;;;;;;4956848;29;20054;-70
2021/12/20 06:09:05;;;;;;;69.30;29.60;;;4.50;99.90;;;;;;4957088;29;20096;-70
2021/12/20 06:11:31;;;;;;;48.88;22.42;;;4.60;99.90;;;;;;4956732;29;20027;-71
2021/12/20 06:13:58;;;;;;;42.53;19.60;;;4.60;99.90;;;;;;4955195;29;20407;-70
2021/12/20 06:16:24;;;;;;;33.40;16.10;;;4.60;99.90;;;;;;4956994;29;20106;-70
2021/12/20 06:18:51;;;;;;;40.03;20.30;;;4.60;99.90;;;;;;4957113;29;20447;-70
2021/12/20 06:21:18;;;;;;;51.63;28.17;;;4.60;99.90;;;;;;4957154;29;20067;-71
2021/12/20 06:23:45;;;;;;;47.10;24.88;;;4.60;99.90;;;;;;4957257;29;20023;-70
2021/12/20 06:26:10;;;;;;;33.63;19.13;;;4.60;99.90;;;;;;4956665;28;20031;-70
2021/12/20 06:28:36;;;;;;;38.35;18.92;;;4.60;99.90;;;;;;4957305;28;20427;-71
2021/12/20 06:31:02;;;;;;;21.10;10.15;;;4.60;99.90;;;;;;4956963;29;20027;-71
2021/12/20 06:33:28;;;;;;;15.52;8.13;;;4.60;99.90;;;;;;4956955;28;20027;-71
2021/12/20 06:35:54;;;;;;;15.45;7.50;;;4.70;99.90;;;;;;4957039;29;20078;-71
2021/12/20 06:38:22;;;;;;;19.15;8.10;;;4.70;99.90;;;;;;4956619;28;20028;-71
2021/12/20 06:40:49;;;;;;;19.05;8.23;;;4.70;99.90;;;;;;4956624;28;20075;-71
2021/12/20 06:43:16;;;;;;;21.15;10.23;;;4.80;99.90;;;;;;4956645;29;20107;-70
2021/12/20 06:45:41;;;;;;;49.35;24.02;;;4.80;99.90;;;;;;4957133;28;20055;-70
2021/12/20 06:48:07;;;;;;;104.30;46.17;;;4.70;99.90;;;;;;4956678;28;20066;-70
2021/12/20 06:50:33;;;;;;;106.97;46.83;;;4.70;99.90;;;;;;4956729;29;20034;-71
2021/12/20 06:53:00;;;;;;;79.10;35.10;;;4.80;99.90;;;;;;4956598;29;20078;-70
2021/12/20 06:55:25;;;;;;;50.08;22.88;;;4.80;99.90;;;;;;4956738;29;20027;-71
2021/12/20 06:57:52;;;;;;;38.47;17.30;;;4.80;99.90;;;;;;4956612;28;20023;-70
2021/12/20 07:00:18;;;;;;;41.15;19.80;;;4.80;99.90;;;;;;4956173;29;20406;-71
2021/12/20 07:02:43;;;;;;;27.15;15.23;;;4.80;99.90;;;;;;4956626;29;20098;-71
2021/12/20 07:05:10;;;;;;;27.95;13.52;;;4.80;99.90;;;;;;4956210;29;20050;-71
2021/12/20 07:07:36;;;;;;;29.05;14.80;;;4.80;99.90;;;;;;4956350;29;20028;-70
2021/12/20 07:10:04;;;;;;;33.15;14.65;;;4.90;99.90;;;;;;4956422;29;20102;-70
2021/12/20 07:12:32;;;;;;;36.40;16.30;;;4.90;99.90;;;;;;4956179;28;20030;-70
2021/12/20 07:14:58;;;;;;;30.02;14.10;;;4.90;99.90;;;;;;4956585;29;20127;-70
2021/12/20 07:17:23;;;;;;;112.90;39.75;;;4.90;99.90;;;;;;4956262;29;20094;-70
2021/12/20 07:19:49;;;;;;;188.45;61.08;;;4.90;99.90;;;;;;4956054;29;20106;-70
2021/12/20 07:22:15;;;;;;;290.70;104.05;;;4.90;99.90;;;;;;4955926;28;20031;-71
2021/12/20 07:24:41;;;;;;;216.05;75.95;;;4.90;99.90;;;;;;4956026;29;20023;-70
2021/12/20 07:27:09;;;;;;;159.65;60.97;;;4.90;99.90;;;;;;4955975;28;20019;-71
2021/12/20 07:29:36;;;;;;;158.80;59.35;;;4.90;99.90;;;;;;4955999;29;20101;-70
2021/12/20 07:32:02;;;;;;;96.70;39.72;;;4.80;99.90;;;;;;4956104;29;20027;-71
2021/12/20 07:34:28;;;;;;;102.72;46.28;;;4.90;99.90;;;;;;4956137;28;20514;-71
2021/12/20 07:36:54;;;;;;;74.13;33.25;;;4.90;99.90;;;;;;4955281;28;20055;-70
2021/12/20 07:39:20;;;;;;;128.98;56.35;;;4.90;99.90;;;;;;4955313;29;20027;-70
2021/12/20 07:41:46;;;;;;;58.38;28.75;;;4.90;99.90;;;;;;4956044;28;20383;-70
2021/12/20 07:44:12;;;;;;;60.85;30.15;;;4.90;99.90;;;;;;4956071;29;20031;-70
2021/12/20 07:46:38;;;;;;;74.90;35.78;;;5.00;99.90;;;;;;4956179;29;20031;-70
2021/12/20 07:49:04;;;;;;;52.97;24.15;;;5.00;99.90;;;;;;4955522;29;20031;-71
2021/12/20 07:51:30;;;;;;;38.05;21.70;;;5.00;99.90;;;;;;4955613;28;20031;-70
2021/12/20 07:53:56;;;;;;;47.35;24.88;;;5.00;99.90;;;;;;4955795;28;20024;-70
2021/12/20 07:56:22;;;;;;;42.92;21.40;;;5.10;99.90;;;;;;4955303;28;20090;-70
2021/12/20 07:58:48;;;;;;;35.95;16.10;;;5.10;99.90;;;;;;4955780;29;20066;-71
2021/12/20 08:01:15;;;;;;;48.75;19.17;;;5.20;99.90;;;;;;4955463;28;20064;-71
2021/12/20 08:03:42;;;;;;;52.33;18.65;;;5.20;99.90;;;;;;4955616;29;20019;-71
2021/12/20 08:06:08;;;;;;;38.33;16.60;;;5.20;99.90;;;;;;4955596;29;20031;-71
2021/12/20 08:08:34;;;;;;;32.22;14.20;;;5.10;99.90;;;;;;4955743;28;20023;-71
2021/12/20 08:11:01;;;;;;;37.35;16.08;;;5.10;99.90;;;;;;4955243;28;20055;-70
2021/12/20 08:13:26;;;;;;;36.88;15.75;;;5.10;99.90;;;;;;4955285;29;20023;-71
2021/12/20 08:15:52;;;;;;;36.30;16.10;;;5.10;99.90;;;;;;4955809;29;20094;-71
2021/12/20 08:18:20;;;;;;;41.92;17.95;;;5.10;99.90;;;;;;4955151;29;20348;-71
2021/12/20 08:20:46;;;;;;;45.63;19.67;;;5.10;99.90;;;;;;4955161;28;20166;-71
2021/12/20 08:23:12;;;;;;;89.90;33.92;;;5.10;99.90;;;;;;4955428;29;20025;-71
2021/12/20 08:25:39;;;;;;;90.20;36.60;;;5.10;99.90;;;;;;4955461;28;20102;-71
2021/12/20 08:28:06;;;;;;;110.78;41.55;;;5.10;99.90;;;;;;4955305;28;20403;-71
2021/12/20 08:30:32;;;;;;;82.32;37.05;;;5.10;99.90;;;;;;4955581;29;20144;-70
2021/12/20 08:32:58;;;;;;;67.28;28.92;;;5.00;99.90;;;;;;4955320;29;20370;-71
2021/12/20 08:35:23;;;;;;;110.93;44.80;;;5.00;99.90;;;;;;4955105;28;20118;-70
2021/12/20 08:37:50;;;;;;;69.90;26.17;;;5.20;99.90;;;;;;4955493;28;20023;-71
2021/12/20 08:40:16;;;;;;;43.45;19.35;;;5.40;99.90;;;;;;4954871;29;20106;-71
2021/12/20 08:42:43;;;;;;;38.08;13.73;;;5.40;99.90;;;;;;4955373;29;20086;-71
2021/12/20 08:45:11;;;;;;;29.73;12.50;;;5.50;99.90;;;;;;4955034;28;20019;-71
2021/12/20 08:47:37;;;;;;;36.75;15.85;;;5.80;99.90;;;;;;4955696;28;20097;-71
2021/12/20 08:50:08;;;;;;;43.33;19.27;;;5.70;99.90;;;;;;4958100;28;20162;-70
2021/12/20 08:52:34;;;;;;;28.80;13.13;;;5.90;99.90;;;;;;4958576;29;20455;-71
2021/12/20 08:55:00;;;;;;;36.60;14.63;;;6.10;99.90;;;;;;4958907;29;20059;-71
2021/12/20 08:57:26;;;;;;;25.88;13.15;;;6.30;99.90;;;;;;4958645;29;20027;-71
2021/12/20 08:59:52;;;;;;;25.40;13.30;;;6.10;99.90;;;;;;4958340;29;20034;-70
2021/12/20 09:02:17;;;;;;;33.88;14.82;;;6.00;99.90;;;;;;4958489;29;20023;-71
2021/12/20 09:04:43;;;;;;;24.58;12.20;;;6.10;99.90;;;;;;4959061;29;20059;-71
2021/12/20 09:07:14;;;;;;;46.13;22.73;;;6.20;99.90;;;;;;4958377;28;20016;-71
2021/12/20 09:09:43;;;;;;;30.48;15.40;;;6.40;99.90;;;;;;4958378;29;20343;-72
2021/12/20 09:12:10;;;;;;;43.17;20.52;;;6.50;99.90;;;;;;4958740;29;20034;-71
2021/12/20 09:14:36;;;;;;;36.35;19.50;;;6.50;99.90;;;;;;4958444;29;20023;-70
2021/12/20 09:17:03;;;;;;;49.33;24.65;;;6.60;99.90;;;;;;4958547;29;20046;-70
2021/12/20 09:19:29;;;;;;;44.90;21.63;;;6.90;99.90;;;;;;4958554;29;20106;-69
2021/12/20 09:21:55;;;;;;;49.22;25.08;;;7.00;99.90;;;;;;4958673;29;20110;-70
2021/12/20 09:24:20;;;;;;;27.20;13.18;;;7.10;99.90;;;;;;4958381;29;20023;-70
2021/12/20 09:26:46;;;;;;;29.70;18.42;;;7.20;99.90;;;;;;4958281;29;20023;-70
2021/12/20 09:29:12;;;;;;;24.08;14.27;;;7.20;99.90;;;;;;4957946;29;20034;-70
2021/12/20 09:31:38;;;;;;;25.38;13.35;;;7.50;99.90;;;;;;4958213;29;20030;-70
2021/12/20 09:34:04;;;;;;;17.23;9.05;;;7.70;99.90;;;;;;4958084;28;20102;-70
2021/12/20 09:36:29;;;;;;;42.80;19.52;;;7.60;99.90;;;;;;4957868;29;20034;-70
2021/12/20 09:38:57;;;;;;;48.47;23.27;;;8.00;99.90;;;;;;4957839;29;20020;-71
2021/12/20 09:44:02;;;;;;;47.08;19.85;;;7.70;99.90;;;;;;4957903;29;20114;-71
2021/12/20 09:46:29;;;;;;;43.15;19.38;;;7.60;99.90;;;;;;4957757;28;20328;-70
2021/12/20 09:48:55;;;;;;;44.50;20.33;;;7.60;99.90;;;;;;4957199;28;20362;-70
2021/12/20 09:51:21;;;;;;;54.20;25.52;;;8.60;99.90;;;;;;4958012;29;20106;-70
2021/12/20 09:53:47;;;;;;;36.67;19.60;;;8.70;99.90;;;;;;4957911;29;20087;-71
2021/12/20 09:56:14;;;;;;;50.45;23.50;;;7.90;99.90;;;;;;4957303;29;20027;-69
2021/12/20 09:58:41;;;;;;;35.78;18.48;;;8.40;99.90;;;;;;4957670;28;20027;-70
2021/12/20 10:01:13;;;;;;;28.52;13.88;;;9.60;99.80;;;;;;4957244;28;20031;-70
2021/12/20 10:03:40;;;;;;;29.77;13.80;;;9.50;97.70;;;;;;4957320;29;20106;-70
2021/12/20 10:06:06;;;;;;;25.65;12.57;;;9.50;96.30;;;;;;4957579;29;20070;-71
2021/12/20 10:08:34;;;;;;;27.73;13.80;;;9.00;96.10;;;;;;4957693;28;20034;-70
2021/12/20 10:11:03;;;;;;;27.65;13.52;;;10.00;96.60;;;;;;4957193;29;20472;-71
2021/12/20 10:13:35;;;;;;;21.52;12.20;;;9.70;94.80;;;;;;4957231;29;20042;-71
2021/12/20 10:16:02;;;;;;;;;;;9.40;93.80;;;;;;4957919;29;20027;-71
2021/12/20 10:18:33;;;;;;;25.20;10.93;;;8.80;93.00;;;;;;4957783;28;19949;-71
2021/12/20 10:21:01;;;;;;;21.55;10.23;;;9.10;92.50;;;;;;4957072;29;20035;-71
2021/12/20 10:23:48;;;;;;;24.58;10.30;;;9.10;91.80;;;;;;4957195;28;20023;-71
2021/12/20 10:26:21;;;;;;;32.00;13.15;;;7.80;92.20;;;;;;4957355;28;20034;-71
2021/12/20 10:28:52;;;;;;;63.78;22.83;;;8.10;92.00;;;;;;4957186;28;20374;-71
2021/12/20 10:31:23;;;;;;;145.38;47.38;;;7.20;93.40;;;;;;4956931;29;20019;-70
2021/12/20 10:33:55;;;;;;;30.00;12.75;;;7.10;94.30;;;;;;4957231;29;20023;-70
2021/12/20 10:36:22;;;;;;;27.90;13.65;;;8.60;94.00;;;;;;4957107;28;20023;-71
2021/12/20 10:38:56;;;;;;;40.15;19.25;;;9.50;93.10;;;;;;4956847;29;20024;-71
2021/12/20 10:41:33;;;;;;;50.47;22.58;;;8.80;93.90;;;;;;4957015;28;20043;-71
2021/12/20 10:44:02;;;;;;;25.25;11.85;;;10.10;92.00;;;;;;4957080;29;20358;-71
2021/12/20 10:46:33;;;;;;;24.75;11.68;;;9.20;91.40;;;;;;4956678;29;20362;-71
2021/12/20 10:49:14;;;;;;;49.45;19.80;;;8.40;92.60;;;;;;4956944;29;20019;-70
2021/12/20 10:51:48;;;;;;;57.38;25.30;;;10.10;91.50;;;;;;4956535;29;20019;-71
2021/12/20 10:54:18;;;;;;;20.30;10.38;;;10.40;90.80;;;;;;4956518;29;20429;-71
2021/12/20 10:57:05;;;;;;;59.90;25.02;;;9.30;90.50;;;;;;4956679;29;20031;-70
2021/12/20 10:59:37;;;;;;;41.08;17.80;;;9.70;90.90;;;;;;4956480;29;20039;-70
2021/12/20 11:05:01;;;;;;;21.40;10.13;;;9.70;91.00;;;;;;4956482;29;20485;-71
2021/12/20 11:10:00;;;;;;;20.40;9.00;;;11.00;87.60;;;;;;4955266;29;20474;-71
2021/12/20 11:12:30;;;;;;;21.48;11.25;;;9.60;88.30;;;;;;4955795;28;20055;-71
2021/12/20 11:15:00;;;;;;;17.95;9.18;;;9.80;90.00;;;;;;4956333;29;20031;-71
2021/12/20 11:17:28;;;;;;;13.57;7.22;;;10.60;89.20;;;;;;4956191;29;20085;-71
2021/12/20 11:19:56;;;;;;;13.13;6.40;;;10.40;87.30;;;;;;4956150;29;20033;-71
2021/12/20 11:22:24;;;;;;;21.45;9.65;;;9.60;87.90;;;;;;4956232;28;20023;-70
2021/12/20 11:25:11;;;;;;;16.73;8.73;;;9.30;89.40;;;;;;4956348;29;20200;-71
2021/12/20 11:27:39;;;;;;;20.15;10.18;;;9.00;91.20;;;;;;4956078;29;20070;-71
2021/12/20 11:30:17;;;;;;;14.95;6.38;;;9.40;91.70;;;;;;4956202;28;20070;-70
2021/12/20 11:32:44;;;;;;;16.25;7.10;;;9.40;90.50;;;;;;4955978;29;20019;-71
2021/12/20 11:35:10;;;;;;;19.63;9.38;;;9.30;90.90;;;;;;4955971;29;20027;-71
2021/12/20 11:37:36;;;;;;;18.55;8.43;;;8.60;91.70;;;;;;4955004;28;20019;-71
2021/12/20 11:40:05;;;;;;;21.50;9.95;;;8.50;92.70;;;;;;4954974;29;20041;-71
2021/12/20 11:42:31;;;;;;;31.45;15.02;;;8.30;92.50;;;;;;4955461;28;20043;-71
2021/12/20 11:45:00;;;;;;;33.78;12.52;;;7.90;93.20;;;;;;4955023;29;20027;-71
2021/12/20 11:47:32;;;;;;;40.13;16.60;;;7.60;93.40;;;;;;4954835;29;20030;-71
2021/12/20 11:50:06;;;;;;;21.75;9.70;;;8.00;93.80;;;;;;4954705;28;20030;-70
2021/12/20 11:52:43;;;;;;;28.00;10.63;;;8.00;94.00;;;;;;4955274;29;20039;-71
2021/12/20 11:55:18;;;;;;;17.80;8.07;;;7.90;95.20;;;;;;4955124;29;20383;-71
2021/12/20 11:57:50;;;;;;;22.55;10.70;;;7.60;94.90;;;;;;4954716;28;20034;-71
2021/12/20 12:00:38;;;;;;;9.07;4.43;;;7.50;95.50;;;;;;4955122;29;20031;-70
2021/12/20 12:03:16;;;;;;;16.92;9.07;;;7.30;95.50;;;;;;4954735;28;20078;-71
2021/12/20 12:05:51;;;;;;;20.10;9.05;;;7.20;95.70;;;;;;4954642;29;20023;-71
2021/12/20 12:08:55;;;;;;;42.58;20.65;;;7.00;96.40;;;;;;4954776;28;20027;-70
2021/12/20 12:11:24;;;;;;;26.20;12.88;;;6.90;97.40;;;;;;4955027;29;20031;-71
2021/12/20 12:14:03;;;;;;;28.63;12.18;;;6.80;98.80;;;;;;4954885;28;20027;-71
2021/12/20 12:17:02;;;;;;;24.95;12.77;;;6.80;98.60;;;;;;4955027;29;20027;-71
2021/12/20 12:19:54;;;;;;;33.67;14.43;;;6.90;98.60;;;;;;4954908;28;20106;-70
2021/12/20 12:22:26;;;;;;;25.02;12.75;;;6.80;99.90;;;;;;4952672;28;20035;-71
2021/12/20 12:24:54;;;;;;;15.65;7.88;;;6.90;99.90;;;;;;4957464;28;20023;-71
2021/12/20 12:27:29;;;;;;;22.80;11.15;;;6.90;99.90;;;;;;4958615;28;20023;-71
2021/12/20 12:30:13;;;;;;;13.50;7.13;;;6.90;99.90;;;;;;4958507;29;20031;-71
2021/12/20 12:33:05;;;;;;;13.02;6.95;;;6.80;99.90;;;;;;4958243;28;20367;-71
2021/12/20 12:35:41;;;;;;;40.65;16.55;;;6.70;99.90;;;;;;4951271;29;20124;-71
2021/12/20 12:38:16;;;;;;;69.03;24.42;;;6.90;99.90;;;;;;4958492;29;20480;-71
2021/12/20 12:40:46;;;;;;;50.80;18.20;;;6.80;99.90;;;;;;4958139;29;20106;-71
2021/12/20 12:43:15;;;;;;;56.35;20.60;;;6.80;99.90;;;;;;4958403;28;20142;-70
2021/12/20 12:46:02;;;;;;;67.25;22.17;;;6.60;99.90;;;;;;4958404;29;20454;-71
2021/12/20 12:48:49;;;;;;;50.47;17.35;;;6.60;99.90;;;;;;4958509;29;20027;-70
2021/12/20 12:51:20;;;;;;;32.17;10.90;;;6.60;99.90;;;;;;4958443;29;20023;-70
2021/12/20 12:53:47;;;;;;;31.38;11.68;;;6.50;99.90;;;;;;4957807;28;20366;-70
2021/12/20 12:56:25;;;;;;;32.83;11.40;;;6.50;99.90;;;;;;4958102;29;20027;-70
2021/12/20 12:59:14;;;;;;;30.60;11.82;;;6.50;99.90;;;;;;4957508;28;20100;-71
2021/12/20 13:02:07;;;;;;;83.47;28.63;;;6.40;99.90;;;;;;4957935;28;20027;-71
2021/12/20 13:04:49;;;;;;;90.03;31.10;;;6.30;99.90;;;;;;4957954;28;20030;-70